sensor_id;sensor_type;location;lat;lon;timestamp;temperature;humidity
20438;DHT22;17436;50.338;8.810;2022-09-16T00:01:42;16.10;30.00
20438;DHT22;17436;50.338;8.810;2022-09-16T00:04:10;16.10;31.40
20438;DHT22;17436;50.338;8.810;2022-09-16T00:06:36;16.20;30.40
20438;DHT22;17436;50.338;8.810;2022-09-16T00:09:03;15.80;31.30
20438;DHT22;17436;50.338;8.810;2022-09-16T00:11:31;15.80;32.40
20438;DHT22;17436;50.338;8.810;2022-09-16T00:13:59;15.80;28.40
20438;DHT22;17436;50.338;8.810;2022-09-16T00:16:27;15.80;31.30
20438;DHT22;17436;50.338;8.810;2022-09-16T00:18:56;15.90;29.80
20438;DHT22;17436;50.338;8.810;2022-09-16T00:21:24;15.80;28.80
20438;DHT22;17436;50.338;8.810;2022-09-16T00:23:51;16.10;30.20
20438;DHT22;17436;50.338;8.810;2022-09-16T00:26:18;16.00;28.50
20438;DHT22;17436;50.338;8.810;2022-09-16T00:28:47;16.00;30.50
20438;DHT22;17436;50.338;8.810;2022-09-16T00:31:14;16.10;31.20
20438;DHT22;17436;50.338;8.810;2022-09-16T00:33:41;16.20;29.70
20438;DHT22;17436;50.338;8.810;2022-09-16T00:36:10;15.90;30.80
20438;DHT22;17436;50.338;8.810;2022-09-16T00:38:39;16.00;28.50
20438;DHT22;17436;50.338;8.810;2022-09-16T00:41:06;16.00;31.00
20438;DHT22;17436;50.338;8.810;2022-09-16T00:43:49;16.00;29.80
20438;DHT22;17436;50.338;8.810;2022-09-16T00:46:20;16.00;30.20
20438;DHT22;17436;50.338;8.810;2022-09-16T00:48:48;15.80;32.10
20438;DHT22;17436;50.338;8.810;2022-09-16T00:51:16;15.70;32.20
20438;DHT22;17436;50.338;8.810;2022-09-16T00:53:49;15.80;32.00
20438;DHT22;17436;50.338;8.810;2022-09-16T00:56:21;15.50;34.30
20438;DHT22;17436;50.338;8.810;2022-09-16T00:58:53;15.50;39.80
20438;DHT22;17436;50.338;8.810;2022-09-16T01:01:27;15.80;37.30
20438;DHT22;17436;50.338;8.810;2022-09-16T01:03:55;15.90;32.10
20438;DHT22;17436;50.338;8.810;2022-09-16T01:06:25;15.70;34.20
20438;DHT22;17436;50.338;8.810;2022-09-16T01:08:55;15.70;31.90
20438;DHT22;17436;50.338;8.810;2022-09-16T01:11:22;15.50;34.70
20438;DHT22;17436;50.338;8.810;2022-09-16T01:13:49;15.50;33.10
20438;DHT22;17436;50.338;8.810;2022-09-16T01:16:22;15.50;32.50
20438;DHT22;17436;50.338;8.810;2022-09-16T01:18:54;15.50;32.40
20438;DHT22;17436;50.338;8.810;2022-09-16T01:21:37;15.40;33.90
20438;DHT22;17436;50.338;8.810;2022-09-16T01:24:32;15.50;32.90
20438;DHT22;17436;50.338;8.810;2022-09-16T01:27:32;15.40;32.70
20438;DHT22;17436;50.338;8.810;2022-09-16T01:30:16;15.20;35.10
20438;DHT22;17436;50.338;8.810;2022-09-16T01:32:55;15.30;35.30
20438;DHT22;17436;50.338;8.810;2022-09-16T01:35:28;15.30;33.10
20438;DHT22;17436;50.338;8.810;2022-09-16T01:38:08;15.30;33.50
20438;DHT22;17436;50.338;8.810;2022-09-16T01:40:47;15.40;31.00
20438;DHT22;17436;50.338;8.810;2022-09-16T01:43:19;15.40;33.40
20438;DHT22;17436;50.338;8.810;2022-09-16T01:45:52;15.40;31.10
20438;DHT22;17436;50.338;8.810;2022-09-16T01:48:24;15.30;33.40
20438;DHT22;17436;50.338;8.810;2022-09-16T01:50:59;15.40;33.40
20438;DHT22;17436;50.338;8.810;2022-09-16T01:53:31;15.30;32.20
20438;DHT22;17436;50.338;8.810;2022-09-16T01:56:04;15.30;33.00
20438;DHT22;17436;50.338;8.810;2022-09-16T01:58:38;15.50;32.00
20438;DHT22;17436;50.338;8.810;2022-09-16T02:01:13;15.30;33.80
20438;DHT22;17436;50.338;8.810;2022-09-16T02:03:45;15.30;34.60
20438;DHT22;17436;50.338;8.810;2022-09-16T02:06:16;15.30;34.60
20438;DHT22;17436;50.338;8.810;2022-09-16T02:08:48;15.50;34.20
20438;DHT22;17436;50.338;8.810;2022-09-16T02:11:18;15.60;31.00
20438;DHT22;17436;50.338;8.810;2022-09-16T02:13:49;15.50;32.00
20438;DHT22;17436;50.338;8.810;2022-09-16T02:16:23;15.50;31.80
20438;DHT22;17436;50.338;8.810;2022-09-16T02:18:55;15.60;31.00
20438;DHT22;17436;50.338;8.810;2022-09-16T02:21:25;15.60;32.30
20438;DHT22;17436;50.338;8.810;2022-09-16T02:23:54;15.70;29.40
20438;DHT22;17436;50.338;8.810;2022-09-16T02:26:26;15.60;29.10
20438;DHT22;17436;50.338;8.810;2022-09-16T02:28:55;15.50;28.20
20438;DHT22;17436;50.338;8.810;2022-09-16T02:31:27;15.60;30.70
20438;DHT22;17436;50.338;8.810;2022-09-16T02:34:00;15.70;28.30
20438;DHT22;17436;50.338;8.810;2022-09-16T02:36:28;15.70;28.30
20438;DHT22;17436;50.338;8.810;2022-09-16T02:39:00;15.60;28.20
20438;DHT22;17436;50.338;8.810;2022-09-16T02:41:28;15.40;28.90
20438;DHT22;17436;50.338;8.810;2022-09-16T02:43:55;15.30;30.80
20438;DHT22;17436;50.338;8.810;2022-09-16T02:46:25;15.30;29.60
20438;DHT22;17436;50.338;8.810;2022-09-16T02:49:03;15.10;31.70
20438;DHT22;17436;50.338;8.810;2022-09-16T02:51:40;15.30;32.20
20438;DHT22;17436;50.338;8.810;2022-09-16T02:54:11;15.40;30.50
20438;DHT22;17436;50.338;8.810;2022-09-16T02:56:42;15.40;29.70
20438;DHT22;17436;50.338;8.810;2022-09-16T02:59:11;15.50;30.60
20438;DHT22;17436;50.338;8.810;2022-09-16T03:01:40;15.50;31.50
20438;DHT22;17436;50.338;8.810;2022-09-16T03:04:09;15.40;31.10
20438;DHT22;17436;50.338;8.810;2022-09-16T03:06:37;15.30;31.80
20438;DHT22;17436;50.338;8.810;2022-09-16T03:09:05;15.50;31.30
20438;DHT22;17436;50.338;8.810;2022-09-16T03:11:52;15.40;30.10
20438;DHT22;17436;50.338;8.810;2022-09-16T03:14:40;15.30;32.30
20438;DHT22;17436;50.338;8.810;2022-09-16T03:17:19;15.20;34.20
20438;DHT22;17436;50.338;8.810;2022-09-16T03:19:58;15.10;38.60
20438;DHT22;17436;50.338;8.810;2022-09-16T03:22:36;15.30;35.60
20438;DHT22;17436;50.338;8.810;2022-09-16T03:25:15;15.20;34.60
20438;DHT22;17436;50.338;8.810;2022-09-16T03:27:50;15.30;35.10
20438;DHT22;17436;50.338;8.810;2022-09-16T03:30:18;15.20;34.70
20438;DHT22;17436;50.338;8.810;2022-09-16T03:32:49;15.20;37.20
20438;DHT22;17436;50.338;8.810;2022-09-16T03:35:21;15.40;36.60
20438;DHT22;17436;50.338;8.810;2022-09-16T03:37:52;15.30;34.80
20438;DHT22;17436;50.338;8.810;2022-09-16T03:40:20;15.30;35.30
20438;DHT22;17436;50.338;8.810;2022-09-16T03:42:47;15.20;35.50
20438;DHT22;17436;50.338;8.810;2022-09-16T03:45:16;15.20;36.40
20438;DHT22;17436;50.338;8.810;2022-09-16T03:47:43;15.20;35.50
20438;DHT22;17436;50.338;8.810;2022-09-16T03:50:12;15.30;34.40
20438;DHT22;17436;50.338;8.810;2022-09-16T03:52:42;15.20;33.40
20438;DHT22;17436;50.338;8.810;2022-09-16T03:55:09;15.10;35.90
20438;DHT22;17436;50.338;8.810;2022-09-16T03:57:36;15.10;35.50
20438;DHT22;17436;50.338;8.810;2022-09-16T04:00:04;15.10;35.60
20438;DHT22;17436;50.338;8.810;2022-09-16T04:02:32;15.20;35.20
20438;DHT22;17436;50.338;8.810;2022-09-16T04:04:59;15.10;35.20
20438;DHT22;17436;50.338;8.810;2022-09-16T04:07:26;15.30;34.70
20438;DHT22;17436;50.338;8.810;2022-09-16T04:09:54;15.20;33.20
20438;DHT22;17436;50.338;8.810;2022-09-16T04:12:21;15.20;34.90
20438;DHT22;17436;50.338;8.810;2022-09-16T04:14:47;15.30;33.20
20438;DHT22;17436;50.338;8.810;2022-09-16T04:17:15;15.20;31.50
20438;DHT22;17436;50.338;8.810;2022-09-16T04:19:42;15.30;32.10
20438;DHT22;17436;50.338;8.810;2022-09-16T04:22:09;15.30;31.10
20438;DHT22;17436;50.338;8.810;2022-09-16T04:24:35;15.10;33.40
20438;DHT22;17436;50.338;8.810;2022-09-16T04:27:04;15.00;35.10
20438;DHT22;17436;50.338;8.810;2022-09-16T04:29:30;15.20;32.10
20438;DHT22;17436;50.338;8.810;2022-09-16T04:31:57;15.10;34.00
20438;DHT22;17436;50.338;8.810;2022-09-16T04:34:24;15.10;35.20
20438;DHT22;17436;50.338;8.810;2022-09-16T04:36:51;15.10;32.80
20438;DHT22;17436;50.338;8.810;2022-09-16T04:39:18;15.20;34.20
20438;DHT22;17436;50.338;8.810;2022-09-16T04:41:44;15.20;32.10
20438;DHT22;17436;50.338;8.810;2022-09-16T04:44:12;15.00;34.50
20438;DHT22;17436;50.338;8.810;2022-09-16T04:46:41;14.80;32.90
20438;DHT22;17436;50.338;8.810;2022-09-16T04:49:08;14.40;39.00
20438;DHT22;17436;50.338;8.810;2022-09-16T04:51:37;14.80;36.90
20438;DHT22;17436;50.338;8.810;2022-09-16T04:54:04;15.00;34.10
20438;DHT22;17436;50.338;8.810;2022-09-16T04:56:31;15.00;31.60
20438;DHT22;17436;50.338;8.810;2022-09-16T04:58:59;14.90;33.20
20438;DHT22;17436;50.338;8.810;2022-09-16T05:01:29;15.00;33.20
20438;DHT22;17436;50.338;8.810;2022-09-16T05:03:58;15.10;34.10
20438;DHT22;17436;50.338;8.810;2022-09-16T05:06:26;15.00;31.80
20438;DHT22;17436;50.338;8.810;2022-09-16T05:08:54;15.00;31.80
20438;DHT22;17436;50.338;8.810;2022-09-16T05:11:23;14.70;35.20
20438;DHT22;17436;50.338;8.810;2022-09-16T05:13:50;14.90;32.10
20438;DHT22;17436;50.338;8.810;2022-09-16T05:16:18;14.50;35.30
20438;DHT22;17436;50.338;8.810;2022-09-16T05:18:48;14.50;35.90
20438;DHT22;17436;50.338;8.810;2022-09-16T05:21:17;14.40;39.10
20438;DHT22;17436;50.338;8.810;2022-09-16T05:23:44;14.30;39.30
20438;DHT22;17436;50.338;8.810;2022-09-16T05:26:13;14.50;40.50
20438;DHT22;17436;50.338;8.810;2022-09-16T05:28:41;14.70;38.80
20438;DHT22;17436;50.338;8.810;2022-09-16T05:31:10;14.80;36.70
20438;DHT22;17436;50.338;8.810;2022-09-16T05:33:37;14.70;37.70
20438;DHT22;17436;50.338;8.810;2022-09-16T05:36:07;14.90;35.80
20438;DHT22;17436;50.338;8.810;2022-09-16T05:38:34;15.00;36.40
20438;DHT22;17436;50.338;8.810;2022-09-16T05:41:02;15.20;35.50
20438;DHT22;17436;50.338;8.810;2022-09-16T05:43:29;15.40;34.70
20438;DHT22;17436;50.338;8.810;2022-09-16T05:45:57;15.40;33.20
20438;DHT22;17436;50.338;8.810;2022-09-16T05:48:24;15.30;35.50
20438;DHT22;17436;50.338;8.810;2022-09-16T05:50:52;15.40;35.60
20438;DHT22;17436;50.338;8.810;2022-09-16T05:53:20;15.40;35.10
20438;DHT22;17436;50.338;8.810;2022-09-16T05:55:57;15.40;35.40
20438;DHT22;17436;50.338;8.810;2022-09-16T05:58:25;15.40;35.50
20438;DHT22;17436;50.338;8.810;2022-09-16T06:00:57;15.10;42.40
20438;DHT22;17436;50.338;8.810;2022-09-16T06:03:24;15.10;40.70
20438;DHT22;17436;50.338;8.810;2022-09-16T06:05:51;15.00;41.20
20438;DHT22;17436;50.338;8.810;2022-09-16T06:08:19;14.90;41.40
20438;DHT22;17436;50.338;8.810;2022-09-16T06:10:46;14.90;43.30
20438;DHT22;17436;50.338;8.810;2022-09-16T06:13:12;14.80;46.40
20438;DHT22;17436;50.338;8.810;2022-09-16T06:15:39;14.90;45.90
20438;DHT22;17436;50.338;8.810;2022-09-16T06:18:13;15.00;43.30
20438;DHT22;17436;50.338;8.810;2022-09-16T06:20:40;14.70;49.70
20438;DHT22;17436;50.338;8.810;2022-09-16T06:23:07;14.70;51.90
20438;DHT22;17436;50.338;8.810;2022-09-16T06:25:35;14.80;52.00
20438;DHT22;17436;50.338;8.810;2022-09-16T06:28:02;14.80;50.50
20438;DHT22;17436;50.338;8.810;2022-09-16T06:30:28;14.90;52.10
20438;DHT22;17436;50.338;8.810;2022-09-16T06:32:55;14.90;49.00
20438;DHT22;17436;50.338;8.810;2022-09-16T06:35:22;14.80;52.00
20438;DHT22;17436;50.338;8.810;2022-09-16T06:37:49;15.00;48.70
20438;DHT22;17436;50.338;8.810;2022-09-16T06:40:15;15.20;48.20
20438;DHT22;17436;50.338;8.810;2022-09-16T06:42:44;15.10;50.10
20438;DHT22;17436;50.338;8.810;2022-09-16T06:45:10;15.00;51.90
20438;DHT22;17436;50.338;8.810;2022-09-16T06:47:37;15.00;52.20
20438;DHT22;17436;50.338;8.810;2022-09-16T06:50:05;14.90;53.80
20438;DHT22;17436;50.338;8.810;2022-09-16T06:52:31;14.80;58.10
20438;DHT22;17436;50.338;8.810;2022-09-16T06:54:58;14.90;57.00
20438;DHT22;17436;50.338;8.810;2022-09-16T06:57:26;15.20;53.80
20438;DHT22;17436;50.338;8.810;2022-09-16T06:59:54;15.10;53.20
20438;DHT22;17436;50.338;8.810;2022-09-16T07:02:20;15.10;52.20
20438;DHT22;17436;50.338;8.810;2022-09-16T07:04:48;15.30;52.40
20438;DHT22;17436;50.338;8.810;2022-09-16T07:07:14;15.30;49.50
20438;DHT22;17436;50.338;8.810;2022-09-16T07:09:41;15.20;52.40
20438;DHT22;17436;50.338;8.810;2022-09-16T07:12:08;15.30;50.50
20438;DHT22;17436;50.338;8.810;2022-09-16T07:14:34;15.40;52.00
20438;DHT22;17436;50.338;8.810;2022-09-16T07:17:03;15.60;50.60
20438;DHT22;17436;50.338;8.810;2022-09-16T07:19:33;15.80;50.20
20438;DHT22;17436;50.338;8.810;2022-09-16T07:22:02;15.80;48.10
20438;DHT22;17436;50.338;8.810;2022-09-16T07:24:28;15.80;48.70
20438;DHT22;17436;50.338;8.810;2022-09-16T07:26:55;15.90;46.40
20438;DHT22;17436;50.338;8.810;2022-09-16T07:29:22;16.00;44.00
20438;DHT22;17436;50.338;8.810;2022-09-16T07:31:49;16.00;42.70
20438;DHT22;17436;50.338;8.810;2022-09-16T07:34:17;16.00;42.10
20438;DHT22;17436;50.338;8.810;2022-09-16T07:36:47;15.80;41.80
20438;DHT22;17436;50.338;8.810;2022-09-16T07:39:15;15.80;42.90
20438;DHT22;17436;50.338;8.810;2022-09-16T07:41:43;15.90;42.60
20438;DHT22;17436;50.338;8.810;2022-09-16T07:44:12;15.70;44.70
20438;DHT22;17436;50.338;8.810;2022-09-16T07:46:41;16.00;41.60
20438;DHT22;17436;50.338;8.810;2022-09-16T07:49:12;16.20;38.60
20438;DHT22;17436;50.338;8.810;2022-09-16T07:51:41;16.00;39.50
20438;DHT22;17436;50.338;8.810;2022-09-16T07:54:11;16.00;37.30
20438;DHT22;17436;50.338;8.810;2022-09-16T07:56:39;16.00;36.90
20438;DHT22;17436;50.338;8.810;2022-09-16T07:59:09;16.00;34.80
20438;DHT22;17436;50.338;8.810;2022-09-16T08:01:36;16.00;35.30
20438;DHT22;17436;50.338;8.810;2022-09-16T08:04:03;15.80;37.00
20438;DHT22;17436;50.338;8.810;2022-09-16T08:06:30;15.80;31.10
20438;DHT22;17436;50.338;8.810;2022-09-16T08:09:00;15.70;32.60
20438;DHT22;17436;50.338;8.810;2022-09-16T08:11:28;15.80;30.30
20438;DHT22;17436;50.338;8.810;2022-09-16T08:13:57;16.00;31.00
20438;DHT22;17436;50.338;8.810;2022-09-16T08:16:24;16.40;28.70
20438;DHT22;17436;50.338;8.810;2022-09-16T08:18:54;16.50;24.70
20438;DHT22;17436;50.338;8.810;2022-09-16T08:21:22;16.10;26.60
20438;DHT22;17436;50.338;8.810;2022-09-16T08:23:50;15.70;28.30
20438;DHT22;17436;50.338;8.810;2022-09-16T08:26:19;15.80;29.40
20438;DHT22;17436;50.338;8.810;2022-09-16T08:28:47;15.80;29.60
20438;DHT22;17436;50.338;8.810;2022-09-16T08:31:14;15.80;30.50
20438;DHT22;17436;50.338;8.810;2022-09-16T08:33:42;15.80;29.60
20438;DHT22;17436;50.338;8.810;2022-09-16T08:36:12;16.00;28.50
20438;DHT22;17436;50.338;8.810;2022-09-16T08:38:40;16.20;28.70
20438;DHT22;17436;50.338;8.810;2022-09-16T08:41:40;16.50;25.70
20438;DHT22;17436;50.338;8.810;2022-09-16T08:44:16;16.90;25.40
20438;DHT22;17436;50.338;8.810;2022-09-16T08:46:50;16.90;23.90
20438;DHT22;17436;50.338;8.810;2022-09-16T08:49:21;16.70;22.30
20438;DHT22;17436;50.338;8.810;2022-09-16T08:51:52;16.50;20.90
20438;DHT22;17436;50.338;8.810;2022-09-16T08:54:25;16.30;22.70
20438;DHT22;17436;50.338;8.810;2022-09-16T08:56:58;16.20;22.70
20438;DHT22;17436;50.338;8.810;2022-09-16T08:59:29;16.40;24.80
20438;DHT22;17436;50.338;8.810;2022-09-16T09:02:15;16.50;24.40
20438;DHT22;17436;50.338;8.810;2022-09-16T09:04:44;16.50;25.60
20438;DHT22;17436;50.338;8.810;2022-09-16T09:07:16;16.60;22.80
20438;DHT22;17436;50.338;8.810;2022-09-16T09:09:51;16.70;21.00
20438;DHT22;17436;50.338;8.810;2022-09-16T09:12:29;16.50;20.00
20438;DHT22;17436;50.338;8.810;2022-09-16T09:15:08;16.90;17.80
20438;DHT22;17436;50.338;8.810;2022-09-16T09:20:38;17.90;11.20
20438;DHT22;17436;50.338;8.810;2022-09-16T09:23:20;18.40;12.20
20438;DHT22;17436;50.338;8.810;2022-09-16T09:25:54;18.80;9.90
20438;DHT22;17436;50.338;8.810;2022-09-16T09:28:48;19.70;6.40
20438;DHT22;17436;50.338;8.810;2022-09-16T09:31:25;19.30;3.20
20438;DHT22;17436;50.338;8.810;2022-09-16T09:34:02;23.90;1.00
20438;DHT22;17436;50.338;8.810;2022-09-16T09:36:41;20.40;1.00
20438;DHT22;17436;50.338;8.810;2022-09-16T09:39:31;19.10;1.00
20438;DHT22;17436;50.338;8.810;2022-09-16T09:42:04;18.50;1.90
20438;DHT22;17436;50.338;8.810;2022-09-16T09:44:45;18.10;3.30
20438;DHT22;17436;50.338;8.810;2022-09-16T09:47:17;17.90;6.20
20438;DHT22;17436;50.338;8.810;2022-09-16T09:49:47;17.80;1.40
20438;DHT22;17436;50.338;8.810;2022-09-16T09:52:18;18.00;1.30
20438;DHT22;17436;50.338;8.810;2022-09-16T09:54:48;18.00;1.50
20438;DHT22;17436;50.338;8.810;2022-09-16T09:57:23;17.80;2.80
20438;DHT22;17436;50.338;8.810;2022-09-16T09:59:59;17.70;2.80
20438;DHT22;17436;50.338;8.810;2022-09-16T10:02:28;17.50;4.90
20438;DHT22;17436;50.338;8.810;2022-09-16T10:04:55;17.50;6.10
20438;DHT22;17436;50.338;8.810;2022-09-16T10:07:23;17.40;7.00
20438;DHT22;17436;50.338;8.810;2022-09-16T10:09:55;17.30;8.80
20438;DHT22;17436;50.338;8.810;2022-09-16T10:12:28;17.10;8.70
20438;DHT22;17436;50.338;8.810;2022-09-16T10:14:56;17.00;10.10
20438;DHT22;17436;50.338;8.810;2022-09-16T10:17:24;17.10;9.90
20438;DHT22;17436;50.338;8.810;2022-09-16T10:19:54;16.90;12.30
20438;DHT22;17436;50.338;8.810;2022-09-16T10:22:25;16.90;12.70
20438;DHT22;17436;50.338;8.810;2022-09-16T10:24:53;16.90;10.00
20438;DHT22;17436;50.338;8.810;2022-09-16T10:27:22;17.00;9.70
20438;DHT22;17436;50.338;8.810;2022-09-16T10:30:11;17.40;10.50
20438;DHT22;17436;50.338;8.810;2022-09-16T10:32:50;18.10;10.70
20438;DHT22;17436;50.338;8.810;2022-09-16T10:35:22;18.00;6.90
20438;DHT22;17436;50.338;8.810;2022-09-16T10:37:54;18.20;4.00
20438;DHT22;17436;50.338;8.810;2022-09-16T10:40:22;17.90;2.80
20438;DHT22;17436;50.338;8.810;2022-09-16T10:42:51;17.80;5.30
20438;DHT22;17436;50.338;8.810;2022-09-16T10:45:24;18.10;5.30
20438;DHT22;17436;50.338;8.810;2022-09-16T10:47:54;18.00;3.60
20438;DHT22;17436;50.338;8.810;2022-09-16T10:50:22;17.70;5.80
20438;DHT22;17436;50.338;8.810;2022-09-16T10:52:54;18.20;2.80
20438;DHT22;17436;50.338;8.810;2022-09-16T10:55:27;18.10;2.40
20438;DHT22;17436;50.338;8.810;2022-09-16T10:58:07;18.30;2.70
20438;DHT22;17436;50.338;8.810;2022-09-16T11:00:42;18.70;1.50
20438;DHT22;17436;50.338;8.810;2022-09-16T11:03:36;18.70;1.00
20438;DHT22;17436;50.338;8.810;2022-09-16T11:06:14;18.70;1.00
20438;DHT22;17436;50.338;8.810;2022-09-16T11:08:54;18.60;1.00
20438;DHT22;17436;50.338;8.810;2022-09-16T11:11:41;18.30;1.00
20438;DHT22;17436;50.338;8.810;2022-09-16T11:14:16;18.30;2.80
20438;DHT22;17436;50.338;8.810;2022-09-16T11:16:58;18.00;1.00
20438;DHT22;17436;50.338;8.810;2022-09-16T11:19:36;18.20;1.90
20438;DHT22;17436;50.338;8.810;2022-09-16T11:22:10;18.20;1.70
20438;DHT22;17436;50.338;8.810;2022-09-16T11:24:50;18.00;1.00
20438;DHT22;17436;50.338;8.810;2022-09-16T11:27:27;17.90;2.40
20438;DHT22;17436;50.338;8.810;2022-09-16T11:30:05;17.70;1.20
20438;DHT22;17436;50.338;8.810;2022-09-16T11:32:54;17.60;3.20
20438;DHT22;17436;50.338;8.810;2022-09-16T11:35:36;17.90;4.10
20438;DHT22;17436;50.338;8.810;2022-09-16T11:38:14;18.10;2.50
20438;DHT22;17436;50.338;8.810;2022-09-16T11:40:46;18.10;3.10
20438;DHT22;17436;50.338;8.810;2022-09-16T11:43:30;18.20;1.80
20438;DHT22;17436;50.338;8.810;2022-09-16T11:46:05;17.80;1.80
20438;DHT22;17436;50.338;8.810;2022-09-16T11:48:40;17.80;1.70
20438;DHT22;17436;50.338;8.810;2022-09-16T11:51:23;17.50;2.80
20438;DHT22;17436;50.338;8.810;2022-09-16T11:54:13;17.50;3.80
20438;DHT22;17436;50.338;8.810;2022-09-16T11:56:46;17.30;6.60
20438;DHT22;17436;50.338;8.810;2022-09-16T11:59:19;17.10;8.70
20438;DHT22;17436;50.338;8.810;2022-09-16T12:01:50;17.00;6.40
20438;DHT22;17436;50.338;8.810;2022-09-16T12:04:22;17.20;6.00
20438;DHT22;17436;50.338;8.810;2022-09-16T12:06:57;17.30;7.30
20438;DHT22;17436;50.338;8.810;2022-09-16T12:09:32;17.50;7.20
20438;DHT22;17436;50.338;8.810;2022-09-16T12:12:08;17.40;4.60
20438;DHT22;17436;50.338;8.810;2022-09-16T12:14:39;17.50;4.30
20438;DHT22;17436;50.338;8.810;2022-09-16T12:17:13;17.50;5.00
20438;DHT22;17436;50.338;8.810;2022-09-16T12:19:46;17.70;6.80
20438;DHT22;17436;50.338;8.810;2022-09-16T12:22:19;17.90;5.40
20438;DHT22;17436;50.338;8.810;2022-09-16T12:24:54;17.90;5.80
20438;DHT22;17436;50.338;8.810;2022-09-16T12:27:31;17.70;3.70
20438;DHT22;17436;50.338;8.810;2022-09-16T12:30:03;17.70;3.50
20438;DHT22;17436;50.338;8.810;2022-09-16T12:32:35;17.70;4.70
20438;DHT22;17436;50.338;8.810;2022-09-16T12:35:11;17.90;3.90
20438;DHT22;17436;50.338;8.810;2022-09-16T12:37:45;18.00;3.10
20438;DHT22;17436;50.338;8.810;2022-09-16T12:40:15;18.00;4.70
20438;DHT22;17436;50.338;8.810;2022-09-16T12:46:06;18.00;3.30
20438;DHT22;17436;50.338;8.810;2022-09-16T12:49:01;18.00;1.30
20438;DHT22;17436;50.338;8.810;2022-09-16T12:51:51;18.10;2.40
20438;DHT22;17436;50.338;8.810;2022-09-16T12:54:43;18.10;2.50
20438;DHT22;17436;50.338;8.810;2022-09-16T12:57:23;17.90;1.00
20438;DHT22;17436;50.338;8.810;2022-09-16T13:00:03;18.00;1.80
20438;DHT22;17436;50.338;8.810;2022-09-16T13:02:34;18.20;1.00
20438;DHT22;17436;50.338;8.810;2022-09-16T13:05:11;18.10;1.00
20438;DHT22;17436;50.338;8.810;2022-09-16T13:07:40;17.90;1.00
20438;DHT22;17436;50.338;8.810;2022-09-16T13:10:15;17.90;1.00
20438;DHT22;17436;50.338;8.810;2022-09-16T13:12:49;17.80;1.00
20438;DHT22;17436;50.338;8.810;2022-09-16T13:15:24;17.70;1.00
20438;DHT22;17436;50.338;8.810;2022-09-16T13:17:51;17.50;1.00
20438;DHT22;17436;50.338;8.810;2022-09-16T13:20:22;17.50;1.00
20438;DHT22;17436;50.338;8.810;2022-09-16T13:23:03;17.60;1.00
20438;DHT22;17436;50.338;8.810;2022-09-16T13:25:33;17.80;1.00
20438;DHT22;17436;50.338;8.810;2022-09-16T13:28:02;17.90;1.00
20438;DHT22;17436;50.338;8.810;2022-09-16T13:30:36;18.00;1.00
20438;DHT22;17436;50.338;8.810;2022-09-16T13:33:22;17.90;1.00
20438;DHT22;17436;50.338;8.810;2022-09-16T13:36:11;17.80;1.00
20438;DHT22;17436;50.338;8.810;2022-09-16T13:38:41;17.70;1.00
20438;DHT22;17436;50.338;8.810;2022-09-16T13:41:10;18.10;1.00
20438;DHT22;17436;50.338;8.810;2022-09-16T13:43:49;18.00;1.00
20438;DHT22;17436;50.338;8.810;2022-09-16T13:46:31;17.90;1.00
20438;DHT22;17436;50.338;8.810;2022-09-16T13:49:10;17.90;1.00
20438;DHT22;17436;50.338;8.810;2022-09-16T13:51:42;18.10;1.00
20438;DHT22;17436;50.338;8.810;2022-09-16T13:54:24;18.30;1.00
20438;DHT22;17436;50.338;8.810;2022-09-16T13:57:13;18.40;1.00
20438;DHT22;17436;50.338;8.810;2022-09-16T13:59:52;18.20;1.00
20438;DHT22;17436;50.338;8.810;2022-09-16T14:02:30;18.20;1.00
20438;DHT22;17436;50.338;8.810;2022-09-16T14:05:10;18.20;1.00
20438;DHT22;17436;50.338;8.810;2022-09-16T14:07:45;18.00;1.00
20438;DHT22;17436;50.338;8.810;2022-09-16T14:10:20;17.90;1.00
20438;DHT22;17436;50.338;8.810;2022-09-16T14:12:56;17.70;1.00
20438;DHT22;17436;50.338;8.810;2022-09-16T14:15:25;17.60;1.00
20438;DHT22;17436;50.338;8.810;2022-09-16T14:17:56;17.50;3.80
20438;DHT22;17436;50.338;8.810;2022-09-16T14:20:24;17.20;8.80
20438;DHT22;17436;50.338;8.810;2022-09-16T14:23:01;17.30;6.00
20438;DHT22;17436;50.338;8.810;2022-09-16T14:25:31;17.30;5.20
20438;DHT22;17436;50.338;8.810;2022-09-16T14:28:14;17.30;4.10
20438;DHT22;17436;50.338;8.810;2022-09-16T14:30:47;17.30;4.50
20438;DHT22;17436;50.338;8.810;2022-09-16T14:33:15;17.30;4.70
20438;DHT22;17436;50.338;8.810;2022-09-16T14:35:45;17.50;2.80
20438;DHT22;17436;50.338;8.810;2022-09-16T14:38:14;17.50;3.40
20438;DHT22;17436;50.338;8.810;2022-09-16T14:40:44;17.50;3.60
20438;DHT22;17436;50.338;8.810;2022-09-16T14:43:14;17.60;2.60
20438;DHT22;17436;50.338;8.810;2022-09-16T14:45:45;17.50;1.30
20438;DHT22;17436;50.338;8.810;2022-09-16T14:48:14;17.60;1.00
20438;DHT22;17436;50.338;8.810;2022-09-16T14:50:43;17.80;1.00
20438;DHT22;17436;50.338;8.810;2022-09-16T14:53:29;17.80;1.00
20438;DHT22;17436;50.338;8.810;2022-09-16T14:55:58;17.90;1.00
20438;DHT22;17436;50.338;8.810;2022-09-16T14:58:27;17.50;1.00
20438;DHT22;17436;50.338;8.810;2022-09-16T15:00:58;17.30;1.00
20438;DHT22;17436;50.338;8.810;2022-09-16T15:03:30;17.00;1.10
20438;DHT22;17436;50.338;8.810;2022-09-16T15:06:04;16.90;5.20
20438;DHT22;17436;50.338;8.810;2022-09-16T15:08:37;16.60;8.30
20438;DHT22;17436;50.338;8.810;2022-09-16T15:11:12;16.00;14.60
20438;DHT22;17436;50.338;8.810;2022-09-16T15:13:41;15.50;34.00
20438;DHT22;17436;50.338;8.810;2022-09-16T15:16:10;15.50;40.60
20438;DHT22;17436;50.338;8.810;2022-09-16T15:18:38;15.30;41.30
20438;DHT22;17436;50.338;8.810;2022-09-16T15:21:08;15.20;44.40
20438;DHT22;17436;50.338;8.810;2022-09-16T15:23:37;15.40;37.20
20438;DHT22;17436;50.338;8.810;2022-09-16T15:26:13;15.30;33.50
20438;DHT22;17436;50.338;8.810;2022-09-16T15:28:51;15.40;33.10
20438;DHT22;17436;50.338;8.810;2022-09-16T15:31:29;15.20;34.20
20438;DHT22;17436;50.338;8.810;2022-09-16T15:33:58;15.20;34.30
20438;DHT22;17436;50.338;8.810;2022-09-16T15:36:33;15.40;28.40
20438;DHT22;17436;50.338;8.810;2022-09-16T15:39:00;15.30;30.00
20438;DHT22;17436;50.338;8.810;2022-09-16T15:41:28;15.50;30.50
20438;DHT22;17436;50.338;8.810;2022-09-16T15:43:57;15.40;30.60
20438;DHT22;17436;50.338;8.810;2022-09-16T15:46:25;15.50;28.10
20438;DHT22;17436;50.338;8.810;2022-09-16T15:48:55;15.70;28.30
20438;DHT22;17436;50.338;8.810;2022-09-16T15:51:27;15.60;29.70
20438;DHT22;17436;50.338;8.810;2022-09-16T15:53:58;15.30;33.70
20438;DHT22;17436;50.338;8.810;2022-09-16T15:56:31;15.70;29.70
20438;DHT22;17436;50.338;8.810;2022-09-16T15:59:02;15.90;28.40
20438;DHT22;17436;50.338;8.810;2022-09-16T16:01:42;15.70;28.30
20438;DHT22;17436;50.338;8.810;2022-09-16T16:04:16;15.80;25.50
20438;DHT22;17436;50.338;8.810;2022-09-16T16:06:50;15.50;21.50
20438;DHT22;17436;50.338;8.810;2022-09-16T16:09:39;15.40;19.70
20438;DHT22;17436;50.338;8.810;2022-09-16T16:12:10;15.40;19.20